Time;durP1;ratioP1;P1;durP2;ratioP2;P2;SDS_P1;SDS_P2;PMS_P1;PMS_P2;Temp;Humidity;BMP_temperature;BMP_pressure;BME280_temperature;BME280_humidity;BME280_pressure;Samples;Min_cycle;Max_cycle;Signal;HPM_P1;HPM_P2
2023/12/27 00:01:30;;;;;;;3.35;0.70;;;8.80;88.00;;;;;;5082102;28;20016;-74
2023/12/27 00:03:56;;;;;;;0.68;0.68;;;8.80;88.60;;;;;;5082312;28;20043;-75
2023/12/27 00:06:21;;;;;;;0.50;0.50;;;8.80;88.30;;;;;;5082083;28;20051;-75
2023/12/27 00:08:47;;;;;;;3.42;0.65;;;8.80;88.10;;;;;;5082246;28;20221;-75
2023/12/27 00:11:17;;;;;;;0.75;0.68;;;8.80;88.10;;;;;;5083960;28;20051;-75
2023/12/27 00:13:43;;;;;;;0.90;0.60;;;8.80;88.30;;;;;;5102469;28;20023;-74
2023/12/27 00:16:09;;;;;;;0.52;0.52;;;8.80;88.70;;;;;;5102563;28;20028;-75
2023/12/27 00:18:35;;;;;;;1.08;0.98;;;8.80;89.10;;;;;;5102172;28;20323;-74
2023/12/27 00:21:00;;;;;;;1.35;0.70;;;8.70;89.00;;;;;;5102272;28;20016;-74
2023/12/27 00:23:28;;;;;;;0.60;0.50;;;8.70;89.20;;;;;;5102306;28;20307;-75
2023/12/27 00:25:54;;;;;;;4.43;0.77;;;8.70;89.30;;;;;;5083633;28;20036;-74
2023/12/27 00:28:20;;;;;;;1.73;0.80;;;8.70;89.80;;;;;;5084162;28;20030;-77
2023/12/27 00:30:48;;;;;;;1.65;0.82;;;8.70;90.00;;;;;;5102432;28;20023;-73
2023/12/27 00:33:15;;;;;;;1.00;0.85;;;8.70;90.20;;;;;;5102021;28;20023;-75
2023/12/27 00:35:40;;;;;;;1.45;0.80;;;8.60;90.30;;;;;;5102114;28;20030;-73
2023/12/27 00:38:06;;;;;;;1.13;0.85;;;8.60;90.60;;;;;;5101702;28;20031;-74
2023/12/27 00:40:32;;;;;;;1.05;0.52;;;8.60;90.80;;;;;;5103780;28;20039;-73
2023/12/27 00:42:58;;;;;;;1.88;0.90;;;8.60;91.00;;;;;;5105214;28;20065;-75
2023/12/27 00:45:24;;;;;;;1.17;0.80;;;8.50;91.20;;;;;;5105321;28;20020;-75
2023/12/27 00:47:49;;;;;;;2.78;0.73;;;8.50;91.40;;;;;;5103679;28;20089;-75
2023/12/27 00:50:15;;;;;;;1.27;0.65;;;8.50;91.50;;;;;;5106004;28;20049;-79
2023/12/27 00:52:41;;;;;;;1.38;0.77;;;8.40;91.80;;;;;;5106521;28;20068;-74
2023/12/27 00:55:07;;;;;;;2.22;0.68;;;8.30;91.80;;;;;;5106084;28;20071;-74
2023/12/27 00:57:33;;;;;;;1.10;0.80;;;8.40;91.80;;;;;;5105550;28;20048;-74
2023/12/27 00:59:59;;;;;;;0.45;0.38;;;8.30;91.80;;;;;;5104942;28;20059;-73
2023/12/27 01:02:25;;;;;;;1.70;0.80;;;8.30;91.50;;;;;;5104709;28;20406;-75
2023/12/27 01:04:54;;;;;;;5.57;1.02;;;8.30;91.80;;;;;;5104302;28;20032;-75
2023/12/27 01:07:22;;;;;;;0.73;0.73;;;8.20;91.80;;;;;;5102713;28;20050;-74
2023/12/27 01:09:49;;;;;;;4.28;1.23;;;8.20;91.70;;;;;;5103533;28;20035;-73
2023/12/27 01:12:14;;;;;;;1.85;0.85;;;8.20;91.60;;;;;;5104155;28;20085;-75
2023/12/27 01:14:40;;;;;;;0.65;0.55;;;8.20;91.50;;;;;;5104240;28;20095;-76
2023/12/27 01:17:07;;;;;;;1.65;0.70;;;8.30;91.30;;;;;;5104890;28;20032;-77
2023/12/27 01:19:33;;;;;;;0.98;0.80;;;8.20;94.40;;;;;;5086072;28;20080;-74
2023/12/27 01:21:58;;;;;;;1.08;0.95;;;8.20;90.80;;;;;;5086088;28;20028;-76
2023/12/27 01:24:24;;;;;;;1.52;0.70;;;8.30;90.20;;;;;;5104221;28;20020;-73
2023/12/27 01:26:50;;;;;;;1.83;0.90;;;8.60;94.20;;;;;;5104485;28;20028;-74
2023/12/27 01:29:15;;;;;;;1.08;0.73;;;8.30;93.60;;;;;;5102262;28;20028;-74
2023/12/27 01:31:41;;;;;;;2.38;0.90;;;8.30;89.90;;;;;;5102238;28;20073;-73
2023/12/27 01:34:07;;;;;;;2.53;1.13;;;8.30;93.40;;;;;;5100912;28;20022;-73
2023/12/27 01:36:32;;;;;;;1.98;0.82;;;8.30;88.90;;;;;;5100967;28;20043;-74
2023/12/27 01:38:58;;;;;;;1.88;0.80;;;8.30;89.30;;;;;;5100058;28;20036;-75
2023/12/27 01:41:23;;;;;;;1.13;0.50;;;8.20;89.00;;;;;;5100693;28;20099;-73
2023/12/27 01:43:49;;;;;;;1.52;0.70;;;8.30;93.30;;;;;;5100967;28;20052;-73
2023/12/27 01:46:15;;;;;;;1.00;0.88;;;8.20;89.00;;;;;;5100655;28;20024;-73
2023/12/27 01:48:41;;;;;;;1.75;0.65;;;8.20;87.90;;;;;;5100726;28;20083;-70
2023/12/27 01:51:08;;;;;;;2.10;0.70;;;8.60;93.00;;;;;;5100764;28;20019;-70
2023/12/27 01:53:34;;;;;;;1.00;0.65;;;8.20;92.90;;;;;;5100883;28;20016;-70
2023/12/27 01:56:01;;;;;;;0.80;0.70;;;8.20;87.60;;;;;;5100864;28;20138;-72
2023/12/27 01:58:28;;;;;;;0.90;0.70;;;8.20;87.60;;;;;;5099732;28;20035;-71
2023/12/27 02:00:56;;;;;;;4.57;0.88;;;8.10;92.60;;;;;;5100307;28;20300;-70
2023/12/27 02:03:23;;;;;;;1.50;0.52;;;8.10;87.80;;;;;;5073152;28;20177;-70
2023/12/27 02:05:51;;;;;;;1.85;0.60;;;8.20;87.90;;;;;;5100551;28;20008;-71
2023/12/27 02:08:18;;;;;;;1.23;0.75;;;8.10;87.90;;;;;;5100630;28;20152;-71
2023/12/27 02:10:43;;;;;;;0.85;0.63;;;8.10;88.10;;;;;;5100508;28;20019;-71
2023/12/27 02:13:09;;;;;;;1.00;0.88;;;8.00;87.90;;;;;;5100533;28;20046;-71
2023/12/27 02:15:35;;;;;;;1.33;0.60;;;8.10;92.90;;;;;;5100548;28;20050;-71
2023/12/27 02:18:04;;;;;;;2.22;0.70;;;8.00;88.70;;;;;;5093575;28;20036;-73
2023/12/27 02:20:30;;;;;;;2.27;0.40;;;8.00;92.80;;;;;;5064350;28;20016;-73
2023/12/27 02:22:57;;;;;;;4.78;1.42;;;7.90;88.60;;;;;;5084289;28;20032;-71
2023/12/27 02:25:23;;;;;;;1.58;0.80;;;7.90;88.30;;;;;;5084349;28;20024;-72
2023/12/27 02:27:49;;;;;;;0.70;0.70;;;7.90;88.20;;;;;;5084023;28;20071;-71
2023/12/27 02:30:19;;;;;;;1.20;0.75;;;7.90;87.30;;;;;;5066076;28;20036;-71
2023/12/27 02:32:46;;;;;;;0.52;0.50;;;7.90;88.00;;;;;;5084033;28;20023;-71
2023/12/27 02:35:12;;;;;;;1.10;0.43;;;7.90;87.60;;;;;;5089068;28;20025;-71
2023/12/27 02:37:38;;;;;;;2.15;0.80;;;7.90;87.20;;;;;;5083872;28;20048;-71
2023/12/27 02:40:04;;;;;;;3.78;0.80;;;7.90;87.10;;;;;;5083966;28;20020;-71
2023/12/27 02:42:30;;;;;;;0.60;0.40;;;7.90;86.90;;;;;;5083711;28;20457;-71
2023/12/27 02:44:57;;;;;;;2.80;0.68;;;7.90;86.60;;;;;;5083556;28;20078;-70
2023/12/27 02:47:23;;;;;;;1.02;0.80;;;7.90;86.40;;;;;;5082216;28;20028;-71
2023/12/27 02:49:48;;;;;;;0.70;0.70;;;7.90;86.70;;;;;;5091010;28;20088;-71
2023/12/27 02:52:14;;;;;;;2.40;1.95;;;7.90;86.10;;;;;;5103589;28;20047;-72
2023/12/27 02:54:40;;;;;;;2.47;0.85;;;7.90;86.10;;;;;;5103706;28;20229;-72
2023/12/27 02:57:05;;;;;;;3.05;0.80;;;7.80;86.00;;;;;;5085137;28;20020;-72
2023/12/27 02:59:31;;;;;;;2.15;0.43;;;7.80;86.10;;;;;;5103354;28;20027;-70
2023/12/27 03:01:57;;;;;;;1.77;0.98;;;7.80;85.50;;;;;;5103252;28;20024;-71
2023/12/27 03:04:22;;;;;;;1.35;0.80;;;7.80;86.20;;;;;;5103382;28;20023;-73
2023/12/27 03:06:48;;;;;;;1.23;0.90;;;7.70;86.30;;;;;;5102705;28;20032;-72
2023/12/27 03:09:14;;;;;;;1.40;0.70;;;7.70;86.40;;;;;;5103480;28;20024;-72
2023/12/27 03:11:39;;;;;;;3.45;0.60;;;7.50;91.80;;;;;;5103257;28;20070;-73
2023/12/27 03:14:05;;;;;;;1.33;0.65;;;7.70;86.60;;;;;;5103267;28;20251;-72
2023/12/27 03:16:31;;;;;;;1.77;0.80;;;7.70;86.60;;;;;;5103222;28;20306;-73
2023/12/27 03:18:57;;;;;;;0.80;0.80;;;7.70;86.70;;;;;;5103229;28;20099;-72
2023/12/27 03:21:23;;;;;;;3.30;0.80;;;7.70;87.30;;;;;;5082099;28;20023;-72
2023/12/27 03:23:49;;;;;;;2.97;1.05;;;7.60;86.90;;;;;;5082787;28;20047;-72
2023/12/27 03:26:14;;;;;;;0.65;0.57;;;6.40;91.50;;;;;;5082734;28;20088;-73
2023/12/27 03:28:40;;;;;;;1.63;1.23;;;7.50;87.40;;;;;;5082637;28;20028;-73
2023/12/27 03:31:06;;;;;;;1.30;0.70;;;7.60;92.50;;;;;;5082051;28;20038;-73
2023/12/27 03:33:33;;;;;;;2.15;0.90;;;7.40;87.90;;;;;;5082330;28;20016;-72
2023/12/27 03:35:59;;;;;;;0.60;0.60;;;7.40;88.20;;;;;;5082370;28;20205;-73
2023/12/27 03:38:25;;;;;;;3.83;1.02;;;7.40;88.40;;;;;;5100663;28;20028;-72
2023/12/27 03:40:51;;;;;;;3.90;0.88;;;7.40;88.40;;;;;;5102267;28;20018;-72
2023/12/27 03:43:17;;;;;;;1.08;0.73;;;7.30;92.20;;;;;;5102701;28;20075;-74
2023/12/27 03:45:42;;;;;;;2.20;1.10;;;7.30;87.80;;;;;;5102228;28;20263;-73
2023/12/27 03:48:08;;;;;;;2.25;1.08;;;7.30;87.50;;;;;;5102462;28;20322;-73
2023/12/27 03:50:34;;;;;;;2.92;0.90;;;7.30;91.90;;;;;;5102312;28;20047;-72
2023/12/27 03:53:00;;;;;;;2.47;0.88;;;7.30;87.30;;;;;;5097479;28;20077;-73
2023/12/27 03:55:26;;;;;;;2.85;0.65;;;7.20;91.70;;;;;;5081850;28;20076;-73
2023/12/27 03:57:52;;;;;;;3.88;0.90;;;7.20;87.00;;;;;;5081954;28;20041;-72
2023/12/27 04:00:18;;;;;;;2.03;0.52;;;7.20;86.80;;;;;;5081997;28;20035;-72
2023/12/27 04:02:45;;;;;;;5.85;0.88;;;7.50;91.40;;;;;;5081608;28;20080;-72
2023/12/27 04:05:12;;;;;;;0.70;0.70;;;7.20;86.00;;;;;;5081704;28;20051;-73
2023/12/27 04:07:38;;;;;;;2.63;1.02;;;7.10;91.20;;;;;;5081659;28;20299;-73
2023/12/27 04:10:04;;;;;;;2.30;0.50;;;7.20;91.10;;;;;;5078791;28;20369;-72
2023/12/27 04:12:29;;;;;;;1.83;0.80;;;7.20;85.80;;;;;;5081960;28;20131;-74
2023/12/27 04:14:55;;;;;;;2.72;0.52;;;7.20;85.70;;;;;;5081886;28;20032;-72
2023/12/27 04:17:21;;;;;;;6.30;0.60;;;7.20;85.70;;;;;;5081264;28;20032;-72
2023/12/27 04:19:46;;;;;;;0.50;0.50;;;7.20;85.60;;;;;;5079969;28;20023;-70
2023/12/27 04:22:13;;;;;;;1.80;1.17;;;7.20;85.50;;;;;;5081355;28;20356;-70
2023/12/27 04:24:38;;;;;;;0.77;0.60;;;7.20;85.70;;;;;;5086091;28;20028;-70
2023/12/27 04:27:05;;;;;;;2.25;0.70;;;7.10;85.70;;;;;;5081335;28;20074;-72
2023/12/27 04:29:30;;;;;;;2.50;0.65;;;7.10;85.80;;;;;;5081149;28;20134;-72
2023/12/27 04:31:56;;;;;;;1.25;1.00;;;7.20;91.30;;;;;;5081253;28;20024;-73
2023/12/27 04:34:22;;;;;;;1.92;0.95;;;7.10;85.80;;;;;;5081493;28;20021;-72
2023/12/27 04:36:47;;;;;;;3.95;1.17;;;7.00;85.90;;;;;;5080844;28;20201;-72
2023/12/27 04:39:13;;;;;;;0.90;0.77;;;6.90;91.20;;;;;;5081257;28;20043;-72
2023/12/27 04:41:39;;;;;;;1.85;0.88;;;7.00;91.20;;;;;;5081085;28;20036;-72
2023/12/27 04:44:05;;;;;;;2.88;1.92;;;6.90;86.40;;;;;;5081212;28;20037;-72
2023/12/27 04:46:31;;;;;;;1.38;0.90;;;6.70;91.60;;;;;;5081314;28;20024;-72
2023/12/27 04:48:56;;;;;;;1.90;1.02;;;6.70;91.80;;;;;;5081005;28;20213;-72
2023/12/27 04:51:22;;;;;;;2.75;0.85;;;6.70;87.40;;;;;;5082020;28;20021;-72
2023/12/27 04:53:48;;;;;;;1.45;1.00;;;6.70;87.70;;;;;;5081508;28;20020;-72
2023/12/27 04:56:16;;;;;;;1.77;1.02;;;6.60;92.10;;;;;;5081462;28;20231;-73
2023/12/27 04:58:42;;;;;;;4.80;1.33;;;6.40;92.20;;;;;;5080552;28;20312;-74
2023/12/27 05:01:07;;;;;;;3.45;1.27;;;6.70;92.60;;;;;;5082071;28;20088;-74
2023/12/27 05:03:39;;;;;;;2.75;1.17;;;6.50;88.90;;;;;;5079325;28;20039;-74
2023/12/27 05:06:07;;;;;;;1.95;1.05;;;6.40;89.40;;;;;;5082345;28;20078;-73
2023/12/27 05:08:33;;;;;;;1.88;1.17;;;6.40;90.00;;;;;;5080557;28;20032;-72
2023/12/27 05:10:59;;;;;;;4.57;1.10;;;6.30;90.10;;;;;;5084760;28;20032;-76
2023/12/27 05:13:25;;;;;;;1.83;1.20;;;6.40;93.60;;;;;;5084156;28;20275;-74
2023/12/27 05:15:50;;;;;;;2.40;1.50;;;6.40;93.60;;;;;;5091898;28;20051;-73
2023/12/27 05:18:16;;;;;;;3.38;1.15;;;6.50;93.80;;;;;;5088204;28;20078;-73
2023/12/27 05:20:41;;;;;;;2.42;1.27;;;6.30;90.40;;;;;;5100758;28;20091;-73
2023/12/27 05:23:07;;;;;;;2.72;0.90;;;6.30;90.50;;;;;;5100809;28;20095;-73
2023/12/27 05:25:33;;;;;;;1.23;0.98;;;6.30;90.50;;;;;;5100702;28;20012;-73
2023/12/27 05:27:58;;;;;;;4.15;1.10;;;6.40;93.90;;;;;;5102563;28;20022;-74
2023/12/27 05:30:24;;;;;;;2.60;1.17;;;6.20;90.70;;;;;;5104303;28;20020;-74
2023/12/27 05:32:49;;;;;;;2.92;1.10;;;6.20;90.70;;;;;;5104034;28;20046;-73
2023/12/27 05:35:15;;;;;;;1.58;1.15;;;6.10;94.10;;;;;;5091199;28;20096;-72
2023/12/27 05:37:41;;;;;;;2.70;1.42;;;6.10;91.00;;;;;;5080834;28;20034;-73
2023/12/27 05:40:07;;;;;;;4.53;1.55;;;6.10;94.20;;;;;;5080558;28;20032;-73
2023/12/27 05:42:33;;;;;;;3.67;1.40;;;6.00;91.10;;;;;;5081044;28;20052;-72
2023/12/27 05:44:58;;;;;;;4.30;1.40;;;6.00;91.10;;;;;;5081177;28;20024;-73
2023/12/27 05:47:24;;;;;;;3.83;1.40;;;5.90;91.30;;;;;;5080393;28;20016;-73
2023/12/27 05:49:50;;;;;;;3.72;1.20;;;5.90;91.50;;;;;;5080568;28;20013;-72
2023/12/27 05:52:15;;;;;;;1.95;1.17;;;5.80;91.70;;;;;;5080363;28;20020;-73
2023/12/27 05:54:41;;;;;;;1.52;1.23;;;5.80;91.90;;;;;;5081051;28;20134;-73
2023/12/27 05:57:07;;;;;;;2.50;1.27;;;5.70;95.40;;;;;;5082792;28;20221;-72
2023/12/27 05:59:33;;;;;;;2.03;1.02;;;5.80;92.10;;;;;;5084262;28;20040;-73
2023/12/27 06:01:59;;;;;;;1.73;1.00;;;5.70;95.30;;;;;;5082603;28;20025;-72
2023/12/27 06:04:27;;;;;;;2.28;1.10;;;5.70;95.30;;;;;;5082902;28;20087;-72
2023/12/27 06:06:53;;;;;;;2.00;1.20;;;5.60;95.40;;;;;;5083769;28;20031;-72
2023/12/27 06:09:20;;;;;;;1.40;1.17;;;5.60;92.20;;;;;;5084237;28;20042;-74
2023/12/27 06:11:46;;;;;;;2.25;1.33;;;5.50;95.40;;;;;;5085022;28;20044;-74
2023/12/27 06:14:12;;;;;;;2.67;1.40;;;5.50;92.40;;;;;;5083386;28;20139;-73
2023/12/27 06:16:38;;;;;;;2.53;1.50;;;5.60;96.10;;;;;;5084189;28;20086;-73
2023/12/27 06:19:04;;;;;;;3.95;1.17;;;5.20;96.50;;;;;;5083973;28;20036;-73
2023/12/27 06:21:30;;;;;;;4.78;1.15;;;5.50;93.40;;;;;;5084257;28;20091;-74
2023/12/27 06:23:56;;;;;;;4.00;1.23;;;5.50;96.90;;;;;;5083836;28;20016;-73
2023/12/27 06:26:22;;;;;;;3.00;1.20;;;5.60;93.50;;;;;;5084138;28;20059;-73
2023/12/27 06:28:48;;;;;;;2.20;1.10;;;5.60;97.10;;;;;;5084339;28;20138;-73
2023/12/27 06:31:16;;;;;;;3.33;1.30;;;5.70;93.50;;;;;;5083398;28;20320;-72
2023/12/27 06:33:42;;;;;;;1.75;1.05;;;5.70;96.60;;;;;;5083443;28;20032;-72
2023/12/27 06:36:08;;;;;;;1.83;0.98;;;5.70;93.50;;;;;;5083338;28;20032;-72
2023/12/27 06:38:33;;;;;;;1.48;1.05;;;5.80;96.30;;;;;;5083253;28;20127;-73
2023/12/27 06:41:07;;;;;;;1.77;1.02;;;5.80;93.40;;;;;;5083265;28;20039;-72
2023/12/27 06:43:33;;;;;;;2.83;1.15;;;5.80;93.30;;;;;;5083410;28;20027;-74
2023/12/27 06:45:58;;;;;;;2.42;1.10;;;5.80;93.30;;;;;;5082088;28;20047;-74
2023/12/27 06:48:24;;;;;;;3.08;1.50;;;5.90;96.40;;;;;;5083585;28;20046;-73
2023/12/27 06:50:50;;;;;;;3.63;1.20;;;5.80;93.30;;;;;;5084114;28;20028;-73
2023/12/27 06:53:16;;;;;;;2.78;1.30;;;6.00;96.50;;;;;;5083397;28;20008;-73
2023/12/27 06:55:42;;;;;;;2.40;1.30;;;6.00;96.60;;;;;;5083533;28;20236;-73
2023/12/27 06:58:07;;;;;;;1.50;1.13;;;6.00;93.60;;;;;;5082034;28;20036;-73
2023/12/27 07:00:35;;;;;;;2.28;1.15;;;6.20;93.20;;;;;;5085102;28;20501;-74
2023/12/27 07:03:01;;;;;;;2.28;1.30;;;6.20;93.10;;;;;;5083527;28;20200;-73
2023/12/27 07:05:26;;;;;;;5.45;1.40;;;6.20;96.40;;;;;;5082817;28;20335;-73
2023/12/27 07:07:52;;;;;;;5.97;1.83;;;6.20;93.20;;;;;;5081948;28;20032;-73
2023/12/27 07:10:18;;;;;;;4.68;1.80;;;6.20;93.20;;;;;;5083211;28;20025;-73
2023/12/27 07:12:43;;;;;;;2.25;1.50;;;6.10;96.30;;;;;;5082715;28;20348;-73
2023/12/27 07:15:10;;;;;;;2.15;1.70;;;6.20;93.30;;;;;;5082717;28;20303;-71
2023/12/27 07:17:36;;;;;;;3.78;1.52;;;5.90;96.30;;;;;;5082564;28;20035;-71
2023/12/27 07:20:02;;;;;;;3.03;2.22;;;6.00;93.40;;;;;;5082659;28;20021;-71
2023/12/27 07:22:28;;;;;;;6.80;2.63;;;6.00;93.60;;;;;;5082569;28;20024;-71
2023/12/27 07:24:53;;;;;;;3.85;1.70;;;6.00;93.70;;;;;;5082561;28;20017;-71
2023/12/27 07:27:19;;;;;;;5.45;2.05;;;6.20;97.10;;;;;;5082482;28;20066;-71
2023/12/27 07:29:44;;;;;;;5.53;2.08;;;5.90;93.90;;;;;;5082353;28;20372;-71
2023/12/27 07:32:11;;;;;;;2.15;1.50;;;5.90;94.00;;;;;;5082508;28;20028;-71
2023/12/27 07:34:36;;;;;;;3.63;1.90;;;5.80;94.00;;;;;;5084279;28;20062;-71
2023/12/27 07:37:03;;;;;;;2.83;1.80;;;5.80;94.20;;;;;;5102479;28;20016;-71
2023/12/27 07:39:29;;;;;;;3.22;1.90;;;5.80;94.20;;;;;;5102832;28;20045;-70
2023/12/27 07:41:55;;;;;;;2.20;1.80;;;5.70;96.70;;;;;;5102137;28;20122;-73
2023/12/27 07:44:20;;;;;;;2.40;1.60;;;5.70;97.50;;;;;;5093891;28;20070;-73
2023/12/27 07:46:46;;;;;;;3.17;1.80;;;5.70;94.40;;;;;;5082135;28;20201;-73
2023/12/27 07:49:12;;;;;;;2.28;1.42;;;5.90;97.60;;;;;;5064193;28;20062;-72
2023/12/27 07:51:37;;;;;;;1.42;1.30;;;5.80;97.50;;;;;;5082130;28;20030;-73
2023/12/27 07:54:03;;;;;;;7.50;1.67;;;5.90;94.30;;;;;;5081987;28;20283;-72
2023/12/27 07:56:29;;;;;;;3.13;1.52;;;6.30;97.10;;;;;;5082215;28;20334;-73
2023/12/27 07:58:54;;;;;;;2.10;1.13;;;6.00;96.90;;;;;;5082075;28;20040;-72
2023/12/27 08:01:21;;;;;;;2.97;2.30;;;6.10;93.60;;;;;;5081955;28;20020;-72
2023/12/27 08:03:46;;;;;;;3.90;1.15;;;6.10;96.60;;;;;;5082118;28;20346;-73
2023/12/27 08:06:12;;;;;;;4.88;2.20;;;6.10;93.60;;;;;;5087815;28;20331;-75
2023/12/27 08:08:38;;;;;;;4.60;1.35;;;6.20;93.50;;;;;;5082674;28;20033;-73
2023/12/27 08:11:04;;;;;;;2.80;1.70;;;6.10;96.10;;;;;;5082759;28;20024;-73
2023/12/27 08:13:31;;;;;;;1.38;1.10;;;6.30;92.90;;;;;;5082524;28;20037;-74
2023/12/27 08:15:57;;;;;;;3.47;1.27;;;6.40;95.80;;;;;;5083485;28;20058;-74
2023/12/27 08:18:23;;;;;;;3.90;1.30;;;;;;;;;;5081721;28;20025;-75
2023/12/27 08:20:49;;;;;;;3.35;1.42;;;6.40;92.50;;;;;;5083376;28;20024;-73
2023/12/27 08:23:18;;;;;;;3.95;1.33;;;;;;;;;;5080311;28;20066;-72
2023/12/27 08:25:47;;;;;;;8.55;1.50;;;6.50;92.30;;;;;;5081034;28;20040;-71
2023/12/27 08:28:14;;;;;;;3.85;1.20;;;6.50;92.30;;;;;;5082859;28;20179;-71
2023/12/27 08:30:40;;;;;;;2.63;0.93;;;6.50;95.00;;;;;;5081306;28;20021;-71
2023/12/27 08:33:06;;;;;;;1.38;1.13;;;6.60;92.20;;;;;;5081222;28;20028;-72
2023/12/27 08:35:36;;;;;;;2.25;1.30;;;6.90;94.70;;;;;;5081043;28;20325;-73
2023/12/27 08:38:03;;;;;;;3.15;1.30;;;7.00;94.60;;;;;;5080994;28;20359;-73
2023/12/27 08:40:29;;;;;;;3.10;1.25;;;7.00;91.70;;;;;;5080983;28;20324;-72
2023/12/27 08:42:55;;;;;;;2.95;1.55;;;7.10;90.70;;;;;;5081050;28;20043;-74
2023/12/27 08:45:21;;;;;;;1.83;1.10;;;7.10;93.80;;;;;;5080937;28;20043;-71
2023/12/27 08:47:46;;;;;;;4.00;1.35;;;7.10;91.00;;;;;;5080999;28;20039;-72
2023/12/27 08:50:12;;;;;;;1.92;1.25;;;7.10;91.00;;;;;;5080698;28;20282;-71
2023/12/27 08:52:38;;;;;;;2.20;1.38;;;7.10;90.70;;;;;;5081689;28;20176;-80
2023/12/27 08:55:06;;;;;;;4.20;1.67;;;7.10;90.50;;;;;;5083816;28;20437;-79
2023/12/27 08:57:36;;;;;;;1.98;1.40;;;7.00;90.40;;;;;;5083864;28;20032;-79
2023/12/27 09:00:05;;;;;;;3.58;1.40;;;7.10;90.40;;;;;;5083923;28;20020;-79
2023/12/27 09:02:31;;;;;;;2.55;1.35;;;7.10;90.40;;;;;;5083184;28;20032;-82
2023/12/27 09:04:57;;;;;;;3.95;1.58;;;;;;;;;;5064372;22;20353;-76
2023/12/27 09:07:23;;;;;;;2.38;1.40;;;7.10;90.40;;;;;;5025108;28;20025;-79
2023/12/27 09:09:49;;;;;;;7.22;1.70;;;;;;;;;;5043540;28;20017;-79
2023/12/27 09:12:14;;;;;;;2.67;1.30;;;7.20;90.40;;;;;;5025301;28;20028;-80
2023/12/27 09:14:40;;;;;;;3.60;1.60;;;;;;;;;;5042550;28;20021;-80
2023/12/27 09:17:06;;;;;;;4.30;1.80;;;7.30;93.40;;;;;;5025413;28;20321;-81
2023/12/27 09:19:33;;;;;;;4.38;1.73;;;7.20;93.10;;;;;;5024945;28;20044;-80
2023/12/27 09:22:00;;;;;;;2.03;1.70;;;7.40;92.80;;;;;;5008790;28;20025;-80
2023/12/27 09:24:27;;;;;;;3.35;1.90;;;7.30;90.10;;;;;;5024785;28;20022;-80
2023/12/27 09:26:53;;;;;;;2.70;1.70;;;7.30;89.20;;;;;;5042705;28;20025;-80
2023/12/27 09:29:18;;;;;;;2.60;1.83;;;7.50;92.40;;;;;;5041508;28;20030;-80
2023/12/27 09:31:44;;;;;;;3.05;2.10;;;;;;;;;;5041613;28;20029;-80
2023/12/27 09:34:10;;;;;;;2.65;1.88;;;7.70;88.00;;;;;;5041425;28;20068;-79
2023/12/27 09:36:37;;;;;;;3.70;2.00;;;;;;;;;;5040902;28;20033;-78
2023/12/27 09:39:03;;;;;;;9.95;2.47;;;7.80;87.40;;;;;;5040508;28;20037;-77
2023/12/27 09:41:29;;;;;;;6.15;2.38;;;;;;;;;;5040206;28;20026;-77
2023/12/27 09:43:57;;;;;;;4.60;2.30;;;8.20;86.80;;;;;;5040541;28;20029;-78
2023/12/27 09:46:26;;;;;;;6.80;3.43;;;8.50;86.50;;;;;;5040707;28;20025;-80
2023/12/27 09:48:53;;;;;;;4.85;2.40;;;8.80;83.70;;;;;;5040492;28;20036;-80
2023/12/27 09:51:24;;;;;;;3.97;2.50;;;8.80;84.40;;;;;;5040426;28;20075;-78
2023/12/27 09:53:51;;;;;;;3.80;2.45;;;9.10;83.30;;;;;;5040485;28;20040;-76
2023/12/27 09:56:28;;;;;;;6.32;2.53;;;9.00;82.80;;;;;;5040418;28;20198;-77
2023/12/27 09:59:18;;;;;;;4.55;2.40;;;9.10;82.10;;;;;;5040204;28;20056;-79
2023/12/27 10:01:49;;;;;;;5.63;2.50;;;9.30;80.30;;;;;;5040203;28;20392;-77
2023/12/27 10:05:11;;;;;;;3.50;2.40;;;9.30;81.20;;;;;;5045910;28;20044;-77
2023/12/27 10:07:39;;;;;;;9.45;3.33;;;9.70;85.60;;;;;;5021735;28;20036;-76
2023/12/27 10:10:09;;;;;;;9.15;3.25;;;9.60;79.70;;;;;;5042399;28;20105;-77
2023/12/27 10:12:35;;;;;;;6.15;3.25;;;9.70;78.40;;;;;;5062867;28;20025;-77
2023/12/27 10:15:01;;;;;;;4.60;3.03;;;9.70;77.90;;;;;;5062524;28;20013;-74
2023/12/27 10:17:27;;;;;;;7.15;2.53;;;9.80;77.40;;;;;;5059912;28;20119;-74
2023/12/27 10:19:53;;;;;;;6.57;2.75;;;9.90;76.70;;;;;;5058759;28;20040;-78
2023/12/27 10:22:19;;;;;;;8.10;3.20;;;9.90;76.60;;;;;;5060074;28;20355;-74
2023/12/27 10:24:44;;;;;;;2.33;1.58;;;10.00;76.00;;;;;;5055641;28;20205;-78
2023/12/27 10:27:12;;;;;;;1.88;1.40;;;10.00;75.50;;;;;;5059958;28;20037;-74
2023/12/27 10:29:38;;;;;;;4.68;1.45;;;10.10;74.20;;;;;;5061126;28;20035;-71
2023/12/27 10:32:06;;;;;;;5.13;1.48;;;10.20;73.20;;;;;;5060031;28;20029;-71
2023/12/27 10:34:33;;;;;;;3.00;1.17;;;10.40;76.80;;;;;;5059951;28;20021;-71
2023/12/27 10:36:59;;;;;;;2.30;1.10;;;10.30;71.50;;;;;;5059589;28;20309;-72
2023/12/27 10:39:25;;;;;;;4.43;1.35;;;10.30;70.80;;;;;;5059820;28;20087;-71
2023/12/27 10:41:54;;;;;;;2.20;1.33;;;10.30;71.10;;;;;;5062172;28;20028;-72
2023/12/27 10:44:20;;;;;;;3.17;1.90;;;10.40;70.80;;;;;;5062429;28;20470;-73
2023/12/27 10:46:48;;;;;;;3.58;1.20;;;10.60;71.20;;;;;;5063259;28;20052;-70
2023/12/27 10:49:14;;;;;;;4.13;1.60;;;10.70;70.70;;;;;;5063131;28;20016;-70
2023/12/27 10:51:41;;;;;;;3.85;1.77;;;10.90;69.10;;;;;;5063234;28;20067;-71
2023/12/27 10:54:07;;;;;;;2.95;1.27;;;10.90;69.80;;;;;;5062915;28;20025;-70
2023/12/27 10:56:40;;;;;;;2.30;1.10;;;11.00;69.20;;;;;;5063208;28;20023;-71
2023/12/27 10:59:07;;;;;;;3.25;1.40;;;11.00;68.80;;;;;;5062777;28;20328;-70
2023/12/27 11:01:34;;;;;;;4.07;1.50;;;11.00;68.20;;;;;;5062550;28;20044;-71
2023/12/27 11:04:06;;;;;;;5.35;1.35;;;11.10;67.80;;;;;;5062863;28;20052;-70
2023/12/27 11:06:38;;;;;;;5.47;1.20;;;11.10;67.60;;;;;;5044818;28;20067;-71
2023/12/27 11:09:07;;;;;;;4.13;1.35;;;11.10;68.10;;;;;;5061551;28;20029;-71
2023/12/27 11:11:39;;;;;;;2.72;0.93;;;11.20;67.30;;;;;;5060942;28;20048;-71
2023/12/27 11:14:09;;;;;;;4.00;1.08;;;11.30;66.90;;;;;;5061156;28;20025;-71
2023/12/27 11:16:37;;;;;;;4.82;1.30;;;11.30;65.30;;;;;;5062661;28;20619;-70
2023/12/27 11:19:06;;;;;;;3.83;0.90;;;11.20;64.90;;;;;;5061363;28;20209;-70
2023/12/27 11:21:36;;;;;;;2.75;1.10;;;11.10;63.80;;;;;;5062477;28;20029;-71
2023/12/27 11:24:05;;;;;;;1.85;0.98;;;11.10;64.50;;;;;;5062588;28;20028;-71
2023/12/27 11:26:36;;;;;;;2.80;1.58;;;11.00;64.30;;;;;;5062354;28;20032;-71
2023/12/27 11:29:11;;;;;;;2.13;1.30;;;11.00;64.60;;;;;;5062444;28;20029;-71
2023/12/27 11:31:41;;;;;;;4.07;2.42;;;11.00;64.60;;;;;;5062583;28;20284;-71
2023/12/27 11:34:07;;;;;;;6.03;1.48;;;11.20;69.20;;;;;;5062366;28;20060;-69
2023/12/27 11:36:33;;;;;;;3.53;0.98;;;11.20;63.90;;;;;;5062266;28;20028;-71
2023/12/27 11:39:14;;;;;;;2.47;1.38;;;11.20;63.20;;;;;;5044209;28;20387;-71
2023/12/27 11:41:40;;;;;;;2.88;1.23;;;11.20;63.50;;;;;;5062381;28;20032;-71
2023/12/27 11:44:07;;;;;;;8.15;1.70;;;11.30;63.10;;;;;;5062135;28;20249;-71
2023/12/27 11:46:34;;;;;;;5.00;1.38;;;11.40;62.70;;;;;;5062182;28;20029;-71
2023/12/27 11:49:00;;;;;;;2.45;0.93;;;11.50;66.70;;;;;;5061998;28;20224;-72
2023/12/27 11:51:37;;;;;;;1.75;0.90;;;11.50;61.60;;;;;;5062049;28;20079;-71
2023/12/27 11:54:04;;;;;;;4.25;1.33;;;11.50;61.40;;;;;;5061145;28;20100;-70
2023/12/27 11:56:32;;;;;;;4.25;1.35;;;11.40;61.50;;;;;;5061792;28;20048;-71
2023/12/27 11:58:59;;;;;;;4.43;1.38;;;11.50;66.60;;;;;;5061631;28;20040;-71
2023/12/27 12:01:35;;;;;;;2.28;1.15;;;11.70;66.60;;;;;;5061661;28;20063;-71
2023/12/27 12:04:27;;;;;;;3.15;1.52;;;11.60;61.40;;;;;;5043740;28;20057;-70
2023/12/27 12:06:56;;;;;;;3.13;1.65;;;11.90;60.50;;;;;;5061884;28;20379;-71
2023/12/27 12:09:44;;;;;;;2.28;1.17;;;12.20;59.60;;;;;;5061759;28;20105;-71
2023/12/27 12:12:16;;;;;;;3.38;1.27;;;12.30;57.20;;;;;;5061556;28;20020;-71
2023/12/27 12:14:42;;;;;;;1.33;0.80;;;12.30;57.00;;;;;;5061509;28;20343;-71
2023/12/27 12:17:08;;;;;;;1.20;0.75;;;12.20;56.70;;;;;;5061616;28;20044;-71
2023/12/27 12:19:39;;;;;;;4.32;1.45;;;12.10;57.30;;;;;;5061718;28;20028;-71
2023/12/27 12:22:05;;;;;;;4.22;0.88;;;11.90;57.80;;;;;;5061431;28;20013;-72
2023/12/27 12:24:35;;;;;;;4.07;1.10;;;11.80;58.10;;;;;;5061518;28;20048;-72
2023/12/27 12:27:01;;;;;;;2.83;1.10;;;11.70;58.40;;;;;;5043515;28;20017;-71
2023/12/27 12:29:27;;;;;;;4.65;1.02;;;11.60;58.20;;;;;;5061223;28;20021;-70
2023/12/27 12:31:54;;;;;;;3.85;1.15;;;11.50;57.90;;;;;;5043281;28;20095;-71
2023/12/27 12:34:24;;;;;;;4.75;1.40;;;11.50;57.70;;;;;;5061209;28;20021;-71
2023/12/27 12:36:54;;;;;;;2.17;1.50;;;11.80;58.40;;;;;;5061254;28;20013;-74
2023/12/27 12:39:20;;;;;;;2.15;1.23;;;12.60;58.70;;;;;;5061106;28;20031;-74
2023/12/27 12:41:46;;;;;;;2.45;1.20;;;13.50;57.00;;;;;;5060986;28;20021;-72
2023/12/27 12:44:12;;;;;;;5.88;1.60;;;14.20;55.40;;;;;;5060916;28;20032;-73
2023/12/27 12:46:42;;;;;;;1.92;1.38;;;15.00;53.70;;;;;;5061033;28;20036;-73
2023/12/27 12:49:10;;;;;;;3.67;1.42;;;15.80;51.60;;;;;;5060922;28;20032;-73
2023/12/27 12:51:36;;;;;;;2.80;1.30;;;16.50;50.90;;;;;;5061108;28;20013;-73
2023/12/27 12:54:03;;;;;;;5.47;2.00;;;17.10;49.30;;;;;;5061019;28;20036;-73
2023/12/27 12:56:28;;;;;;;3.13;1.73;;;17.60;48.10;;;;;;5060828;28;20317;-73